Time;durP1;ratioP1;P1;durP2;ratioP2;P2;SDS_P1;SDS_P2;PMS_P1;PMS_P2;Temp;Humidity;BMP_temperature;BMP_pressure;BME280_temperature;BME280_humidity;BME280_pressure;Samples;Min_cycle;Max_cycle;Signal;HPM_P1;HPM_P2
2023/04/01 00:01:17;;;;;;;20.13;9.67;;;;;;;;;;4389297;32;319149;-83
2023/04/01 00:03:45;;;;;;;26.63;10.23;;;;;;;;;;4384265;32;318235;-87
2023/04/01 00:06:14;;;;;;;28.90;13.53;;;;;;;;;;4398774;32;319901;-77
2023/04/01 00:08:41;;;;;;;26.03;12.67;;;;;;;;;;4386313;32;419882;-84
2023/04/01 00:11:08;;;;;;;23.77;12.20;;;;;;;;;;4385992;32;319225;-85
2023/04/01 00:13:35;;;;;;;30.73;13.57;;;;;;;;;;4385101;32;319342;-82
2023/04/01 00:16:04;;;;;;;33.00;14.63;;;;;;;;;;4374317;32;318696;-78
2023/04/01 00:18:32;;;;;;;29.13;14.50;;;;;;;;;;4394013;32;318394;-75
2023/04/01 00:21:01;;;;;;;30.10;12.93;;;;;;;;;;4406581;32;318444;-77
2023/04/01 00:23:27;;;;;;;32.55;12.82;;;;;;;;;;4396156;32;319303;-77
2023/04/01 00:25:54;;;;;;;20.73;12.13;;;;;;;;;;4407858;32;318585;-75
2023/04/01 00:28:21;;;;;;;15.43;10.80;;;;;;;;;;4397690;32;319254;-76
2023/04/01 00:30:50;;;;;;;30.08;12.25;;;;;;;;;;4407791;32;319003;-78
2023/04/01 00:33:20;;;;;;;25.17;12.52;;;;;;;;;;4372564;32;319263;-81
2023/04/01 00:35:47;;;;;;;24.40;12.83;;;;;;;;;;4377707;32;319142;-77
2023/04/01 00:38:16;;;;;;;26.40;14.23;;;;;;;;;;4354326;32;318970;-80
2023/04/01 00:40:45;;;;;;;28.53;14.83;;;;;;;;;;4376481;32;326981;-77
2023/04/01 00:43:15;;;;;;;36.60;15.87;;;;;;;;;;4356318;32;318955;-74
2023/04/01 00:45:43;;;;;;;27.93;15.73;;;;;;;;;;4363587;32;418497;-79
2023/04/01 00:48:14;;;;;;;36.37;16.03;;;;;;;;;;4370538;32;318828;-80
2023/04/01 00:50:45;;;;;;;32.67;16.67;;;;;;;;;;4391685;32;418438;-78
2023/04/01 00:53:13;;;;;;;38.47;16.05;;;;;;;;;;4399537;32;344715;-83
2023/04/01 00:55:44;;;;;;;43.17;17.50;;;;;;;;;;4387800;32;419675;-85
2023/04/01 00:58:16;;;;;;;34.03;17.33;;;;;;;;;;4397729;32;319363;-83
2023/04/01 01:00:43;;;;;;;30.60;17.03;;;;;;;;;;4386158;32;418162;-79
2023/04/01 01:03:10;;;;;;;35.77;18.03;;;;;;;;;;4400977;32;318620;-84
2023/04/01 01:05:54;;;;;;;26.23;14.97;;;;;;;;;;4390084;32;318713;-78
2023/04/01 01:08:31;;;;;;;27.65;14.70;;;;;;;;;;4388086;32;319365;-83
2023/04/01 01:10:58;;;;;;;28.42;16.33;;;;;;;;;;4362957;32;318619;-84
2023/04/01 01:13:35;;;;;;;28.47;17.17;;;;;;;;;;4379929;32;319517;-82
2023/04/01 01:16:07;;;;;;;33.07;18.23;;;;;;;;;;4398407;32;319370;-82
2023/04/01 01:18:40;;;;;;;31.63;17.03;;;;;;;;;;4374263;32;319664;-84
2023/04/01 01:21:33;;;;;;;31.50;18.47;;;;;;;;;;4383460;32;319337;-81
2023/04/01 01:24:21;;;;;;;40.23;21.43;;;;;;;;;;4383720;32;419694;-82
2023/04/01 01:26:55;;;;;;;44.03;22.53;;;;;;;;;;4377478;32;418129;-81
2023/04/01 01:29:54;;;;;;;46.63;23.67;;;;;;;;;;4383158;32;319002;-85
2023/04/01 01:32:56;;;;;;;41.95;20.37;;;;;;;;;;4382681;32;318677;-84
2023/04/01 01:35:28;;;;;;;35.53;18.57;;;;;;;;;;4355681;32;319325;-86
2023/04/01 01:38:00;;;;;;;37.43;19.03;;;;;;;;;;4381960;32;319322;-83
2023/04/01 01:40:28;;;;;;;33.73;17.17;;;;;;;;;;4372366;32;319094;-85
2023/04/01 01:43:06;;;;;;;28.53;17.20;;;;;;;;;;4382335;32;318989;-85
2023/04/01 01:45:36;;;;;;;34.33;16.20;;;;;;;;;;4387761;32;319431;-82
2023/04/01 01:48:05;;;;;;;28.67;15.60;;;;;;;;;;4397797;32;318633;-83
2023/04/01 01:50:36;;;;;;;30.90;12.90;;;;;;;;;;4386292;32;318705;-85
2023/04/01 01:53:05;;;;;;;28.80;13.40;;;;;;;;;;4398628;32;319591;-84
2023/04/01 01:55:36;;;;;;;25.73;13.80;;;;;;;;;;4379886;32;319475;-82
2023/04/01 01:58:08;;;;;;;27.33;13.70;;;;;;;;;;4403533;32;318879;-77
2023/04/01 02:00:36;;;;;;;37.50;22.37;;;;;;;;;;4398278;32;319205;-78
2023/04/01 02:03:04;;;;;;;67.17;37.97;;;;;;;;;;4403521;32;318623;-84
2023/04/01 02:05:34;;;;;;;37.60;23.83;;;;;;;;;;4385736;32;318644;-80
2023/04/01 02:08:06;;;;;;;32.70;20.27;;;;;;;;;;4385453;32;319016;-82
2023/04/01 02:10:36;;;;;;;32.25;16.35;;;;;;;;;;4380422;32;319449;-81
2023/04/01 02:13:09;;;;;;;22.57;13.30;;;;;;;;;;4397781;32;319034;-86
2023/04/01 02:15:42;;;;;;;22.00;10.77;;;;;;;;;;4380822;32;318901;-86
2023/04/01 02:18:10;;;;;;;24.00;10.47;;;;;;;;;;4398070;32;319737;-79
2023/04/01 02:20:40;;;;;;;17.67;10.93;;;;;;;;;;4387281;32;319776;-81
2023/04/01 02:23:09;;;;;;;17.73;10.20;;;;;;;;;;4396128;32;336332;-82
2023/04/01 02:25:41;;;;;;;21.73;10.80;;;;;;;;;;4376032;32;319251;-82
2023/04/01 02:28:11;;;;;;;20.63;10.60;;;;;;;;;;4397255;32;318738;-84
2023/04/01 02:30:42;;;;;;;20.53;10.83;;;;;;;;;;4385402;32;418429;-81
2023/04/01 02:33:09;;;;;;;12.53;9.07;;;;;;;;;;4380976;32;319279;-85
2023/04/01 02:35:38;;;;;;;17.60;8.97;;;;;;;;;;4361093;32;318355;-84
2023/04/01 02:38:06;;;;;;;15.83;8.27;;;;;;;;;;4380584;32;346143;-83
2023/04/01 02:40:46;;;;;;;15.93;10.13;;;;;;;;;;4373522;32;335646;-85
2023/04/01 02:43:14;;;;;;;19.73;11.13;;;;;;;;;;4385668;32;319314;-79
2023/04/01 02:45:41;;;;;;;26.90;11.90;;;;;;;;;;4397233;32;319734;-83
2023/04/01 02:48:09;;;;;;;25.03;11.97;;;;;;;;;;4397317;32;319475;-81
2023/04/01 02:50:38;;;;;;;20.03;12.37;;;;;;;;;;4385790;32;319354;-84
2023/04/01 02:53:06;;;;;;;20.53;11.70;;;;;;;;;;4396126;32;319740;-81
2023/04/01 02:55:37;;;;;;;23.00;12.40;;;;;;;;;;4386062;32;319516;-85
2023/04/01 02:58:05;;;;;;;22.40;10.57;;;;;;;;;;4397150;32;318722;-86
2023/04/01 03:00:32;;;;;;;19.80;8.97;;;;;;;;;;4385656;32;318834;-84
2023/04/01 03:02:59;;;;;;;18.33;9.57;;;;;;;;;;4397733;32;318346;-77
2023/04/01 03:05:26;;;;;;;18.97;9.40;;;;;;;;;;4390050;32;317708;-86
2023/04/01 03:07:55;;;;;;;23.63;9.43;;;;;;;;;;4399820;32;332577;-78
2023/04/01 03:10:23;;;;;;;25.67;10.77;;;;;;;;;;4378888;32;318305;-79
2023/04/01 03:12:51;;;;;;;31.83;12.30;;;;;;;;;;4399460;32;318817;-77
2023/04/01 03:15:21;;;;;;;22.00;12.10;;;;;;;;;;4398827;32;319269;-87
2023/04/01 03:17:48;;;;;;;35.40;13.50;;;;;;;;;;4392856;32;318900;-87
2023/04/01 03:20:17;;;;;;;30.57;15.97;;;;;;;;;;4379499;32;319189;-87
2023/04/01 03:22:44;;;;;;;32.23;15.57;;;;;;;;;;4378066;32;318857;-80
2023/04/01 03:25:12;;;;;;;29.07;16.70;;;;;;;;;;4398822;32;319474;-80
2023/04/01 03:27:39;;;;;;;30.03;15.87;;;;;;;;;;4386065;32;419138;-82
2023/04/01 03:30:08;;;;;;;30.20;15.70;;;;;;;;;;4399828;32;318826;-80
2023/04/01 03:32:35;;;;;;;33.60;16.63;;;;;;;;;;4380951;32;318632;-79
2023/04/01 03:35:02;;;;;;;26.03;16.57;;;;;;;;;;4353348;32;319015;-81
2023/04/01 03:37:29;;;;;;;31.43;19.33;;;;;;;;;;4359278;32;319473;-80
2023/04/01 03:39:56;;;;;;;34.43;19.97;;;;;;;;;;4399336;32;318699;-85
2023/04/01 03:42:24;;;;;;;33.40;19.13;;;;;;;;;;4388358;32;319427;-82
2023/04/01 03:44:52;;;;;;;44.43;21.73;;;;;;;;;;4402823;32;318917;-86
2023/04/01 03:47:19;;;;;;;36.43;24.03;;;;;;;;;;4396019;32;320601;-86
2023/04/01 03:49:46;;;;;;;31.20;17.93;;;;;;;;;;4398830;32;318765;-86
2023/04/01 03:52:13;;;;;;;29.83;14.70;;;;;;;;;;4388823;32;319507;-83
2023/04/01 03:54:40;;;;;;;26.00;13.70;;;;;;;;;;4398966;32;318846;-86
2023/04/01 03:57:07;;;;;;;27.67;13.13;;;;;;;;;;4399518;32;318869;-78
2023/04/01 03:59:35;;;;;;;29.97;14.70;;;;;;;;;;4371321;32;319236;-87
2023/04/01 04:02:03;;;;;;;20.97;12.90;;;;;;;;;;4372997;32;319405;-84
2023/04/01 04:04:30;;;;;;;26.90;13.63;;;;;;;;;;4365947;32;319621;-84
2023/04/01 04:06:57;;;;;;;22.87;13.33;;;;;;;;;;4398662;32;319528;-86
2023/04/01 04:09:24;;;;;;;28.60;14.27;;;;;;;;;;4388895;32;318737;-86
2023/04/01 04:11:51;;;;;;;26.17;13.87;;;;;;;;;;4398948;32;318971;-86
2023/04/01 04:14:18;;;;;;;33.10;14.93;;;;;;;;;;4387863;32;319457;-77
2023/04/01 04:16:46;;;;;;;28.70;14.40;;;;;;;;;;4393232;32;318624;-86
2023/04/01 04:19:14;;;;;;;22.70;13.53;;;;;;;;;;4371197;32;319710;-83
2023/04/01 04:21:41;;;;;;;23.73;12.77;;;;;;;;;;4397785;32;319169;-85
2023/04/01 04:24:07;;;;;;;25.03;11.60;;;;;;;;;;4396512;32;324398;-86
2023/04/01 04:26:35;;;;;;;19.50;11.37;;;;;;;;;;4380903;32;318621;-81
2023/04/01 04:29:03;;;;;;;18.90;10.30;;;;;;;;;;4383756;32;319244;-78
2023/04/01 04:31:29;;;;;;;19.80;10.53;;;;;;;;;;4388004;32;319192;-82
2023/04/01 04:34:00;;;;;;;17.47;9.97;;;;;;;;;;4375303;32;318530;-80
2023/04/01 04:36:27;;;;;;;26.30;11.83;;;;;;;;;;4378092;32;318102;-85
2023/04/01 04:38:54;;;;;;;28.37;13.07;;;;;;;;;;4382339;32;318622;-84
2023/04/01 04:41:21;;;;;;;31.30;14.30;;;;;;;;;;4371768;32;340723;-79
2023/04/01 04:43:52;;;;;;;17.77;12.40;;;;;;;;;;4379920;32;319108;-80
2023/04/01 04:46:19;;;;;;;31.93;16.27;;;;;;;;;;4382144;32;318703;-86
2023/04/01 04:48:46;;;;;;;30.43;19.50;;;;;;;;;;4383676;32;319240;-84
2023/04/01 04:51:19;;;;;;;27.63;18.67;;;;;;;;;;4384969;32;319020;-79
2023/04/01 04:53:46;;;;;;;22.93;15.50;;;;;;;;;;4398833;32;319029;-79
2023/04/01 04:56:13;;;;;;;33.27;15.37;;;;;;;;;;4384841;32;319331;-80
2023/04/01 04:58:40;;;;;;;41.33;11.53;;;;;;;;;;4398450;32;319360;-86
2023/04/01 05:01:10;;;;;;;29.40;13.07;;;;;;;;;;4384708;32;318822;-84
2023/04/01 05:03:37;;;;;;;21.97;13.30;;;;;;;;;;4386954;32;318481;-83
2023/04/01 05:06:05;;;;;;;29.97;13.63;;;;;;;;;;4383731;32;318763;-86
2023/04/01 05:08:34;;;;;;;24.40;14.33;;;;;;;;;;4379651;32;318586;-84
2023/04/01 05:11:01;;;;;;;23.83;14.00;;;;;;;;;;4396720;32;318557;-86
2023/04/01 05:13:28;;;;;;;22.13;14.37;;;;;;;;;;4377479;32;319941;-84
2023/04/01 05:15:55;;;;;;;26.17;16.10;;;;;;;;;;4377810;32;319785;-87
2023/04/01 05:18:22;;;;;;;21.80;15.10;;;;;;;;;;4373520;32;319350;-86
2023/04/01 05:20:50;;;;;;;35.67;19.50;;;;;;;;;;4385563;32;318700;-78
2023/04/01 05:23:17;;;;;;;45.93;20.77;;;;;;;;;;4374329;32;319252;-79
2023/04/01 05:25:46;;;;;;;40.67;20.53;;;;;;;;;;4397554;32;318648;-81
2023/04/01 05:28:13;;;;;;;33.60;20.53;;;;;;;;;;4390342;32;318731;-80
2023/04/01 05:30:42;;;;;;;32.07;18.53;;;;;;;;;;4383198;32;418311;-78
2023/04/01 05:33:09;;;;;;;39.10;21.40;;;;;;;;;;4382548;32;318975;-83
2023/04/01 05:35:35;;;;;;;78.53;44.70;;;;;;;;;;4356220;32;337330;-86
2023/04/01 05:38:04;;;;;;;77.80;45.43;;;;;;;;;;4397779;32;318684;-82
2023/04/01 05:40:31;;;;;;;68.73;43.13;;;;;;;;;;4387001;32;318735;-85
2023/04/01 05:43:00;;;;;;;64.50;37.77;;;;;;;;;;4396391;32;357868;-80
2023/04/01 05:45:28;;;;;;;54.83;36.80;;;;;;;;;;4387891;32;319230;-82
2023/04/01 05:47:55;;;;;;;57.77;35.63;;;;;;;;;;4372088;32;319676;-80
2023/04/01 05:50:22;;;;;;;59.03;33.07;;;;;;;;;;4368553;32;318647;-81
2023/04/01 05:52:49;;;;;;;46.67;29.67;;;;;;;;;;4387736;32;319409;-88
2023/04/01 05:55:17;;;;;;;43.07;25.87;;;;;;;;;;4387876;32;318912;-85
2023/04/01 05:57:49;;;;;;;34.27;18.03;;;;;;;;;;4397519;32;319372;-87
2023/04/01 06:00:19;;;;;;;35.57;15.57;;;;;;;;;;4384488;32;319059;-82
2023/04/01 06:02:46;;;;;;;46.57;20.77;;;;;;;;;;4396957;32;319370;-83
2023/04/01 06:05:18;;;;;;;68.50;39.07;;;;;;;;;;4393237;32;318703;-82
2023/04/01 06:07:45;;;;;;;38.30;17.23;;;;;;;;;;4389249;32;319218;-85
2023/04/01 06:10:16;;;;;;;23.97;13.10;;;;;;;;;;4379578;32;319524;-88
2023/04/01 06:12:54;;;;;;;20.10;11.13;;;;;;;;;;4364781;32;418531;-87
2023/04/01 06:15:37;;;;;;;26.60;12.27;;;;;;;;;;4375085;32;319378;-87
2023/04/01 06:18:38;;;;;;;26.33;11.07;;;;;;;;;;4396354;32;360681;-86
2023/04/01 06:21:17;;;;;;;29.17;14.40;;;;;;;;;;4382386;32;422644;-87
2023/04/01 06:24:01;;;;;;;24.67;15.20;;;;;;;;;;4384603;32;421265;-85
2023/04/01 06:26:35;;;;;;;26.63;14.70;;;;;;;;;;4386149;32;318992;-86
2023/04/01 06:29:27;;;;;;;27.70;15.87;;;;;;;;;;4386088;32;319610;-88
2023/04/01 06:32:30;;;;;;;21.70;11.47;;;;;;;;;;4366134;32;417743;-91
2023/04/01 06:35:26;;;;;;;23.17;11.10;;;;;;;;;;4317862;32;391977;-86
2023/04/01 06:38:11;;;;;;;22.57;11.23;;;;;;;;;;4356493;32;419311;-85
2023/04/01 06:40:56;;;;;;;21.70;10.73;;;;;;;;;;4398928;32;387152;-87
2023/04/01 06:43:29;;;;;;;22.30;11.20;;;;;;;;;;4392557;32;318563;-89
2023/04/01 06:46:00;;;;;;;21.37;10.70;;;;;;;;;;4403580;32;318378;-88
2023/04/01 06:48:56;;;;;;;17.35;9.32;;;;;;;;;;4396963;32;318975;-86
2023/04/01 06:51:35;;;;;;;22.40;9.65;;;;;;;;;;4401230;32;318444;-85
2023/04/01 06:54:07;;;;;;;16.47;8.03;;;;;;;;;;4416336;32;316906;-80
2023/04/01 06:56:37;;;;;;;19.43;7.73;;;;;;;;;;4399663;32;316947;-84
2023/04/01 06:59:07;;;;;;;14.00;7.37;;;;;;;;;;4402044;32;317699;-78
2023/04/01 07:01:39;;;;;;;19.80;6.57;;;;;;;;;;4407015;32;317124;-79
2023/04/01 07:04:11;;;;;;;12.37;6.27;;;;;;;;;;4417808;32;317036;-80
2023/04/01 07:06:43;;;;;;;9.73;4.23;;;;;;;;;;4391785;32;318258;-83
2023/04/01 07:09:14;;;;;;;14.03;5.40;;;;;;;;;;4412225;32;315763;-77
2023/04/01 07:11:41;;;;;;;11.50;5.30;;;;;;;;;;4401305;32;417297;-79
2023/04/01 07:14:17;;;;;;;9.57;5.53;;;;;;;;;;4414603;32;317182;-82
2023/04/01 07:16:49;;;;;;;21.17;7.13;;;;;;;;;;4400183;32;416311;-82
2023/04/01 07:19:22;;;;;;;14.27;6.60;;;;;;;;;;4387788;32;317580;-78
2023/04/01 07:21:53;;;;;;;11.13;6.50;;;;;;;;;;4399104;32;317748;-92
2023/04/01 07:24:25;;;;;;;13.13;6.93;;;;;;;;;;4390222;32;317637;-85
2023/04/01 07:26:55;;;;;;;12.27;6.67;;;;;;;;;;4398947;32;317591;-85
2023/04/01 07:29:23;;;;;;;10.40;5.80;;;;;;;;;;4389373;32;317747;-88
2023/04/01 07:32:05;;;;;;;19.93;7.00;;;;;;;;;;4387993;32;317588;-80
2023/04/01 07:34:40;;;;;;;16.83;7.40;;;;;;;;;;4356139;32;326091;-85
2023/04/01 07:37:15;;;;;;;14.73;7.35;;;;;;;;;;4369016;32;317305;-84
2023/04/01 07:39:52;;;;;;;22.87;9.07;;;;;;;;;;4343770;32;417020;-81
2023/04/01 07:42:33;;;;;;;13.98;9.00;;;;;;;;;;4358820;32;317961;-84
2023/04/01 07:45:12;;;;;;;15.57;7.22;;;;;;;;;;4371415;32;318511;-83
2023/04/01 07:47:52;;;;;;;12.15;7.40;;;;;;;;;;4379698;32;419487;-84
2023/04/01 07:50:26;;;;;;;17.83;8.23;;;;;;;;;;4375694;32;318219;-76
2023/04/01 07:53:05;;;;;;;18.45;8.23;;;;;;;;;;4400247;32;317684;-85
2023/04/01 07:55:40;;;;;;;19.35;7.50;;;;;;;;;;4388347;32;317427;-84
2023/04/01 07:58:15;;;;;;;22.83;7.95;;;;;;;;;;4399265;32;317527;-86
2023/04/01 08:00:50;;;;;;;16.83;7.50;;;;;;;;;;4385427;32;416923;-76
2023/04/01 08:03:34;;;;;;;16.17;6.75;;;;;;;;;;4363224;32;370928;-80
2023/04/01 08:06:07;;;;;;;11.60;6.07;;;;;;;;;;4368188;32;318239;-83
2023/04/01 08:08:57;;;;;;;15.13;7.15;;;;;;;;;;4358596;32;318258;-86
2023/04/01 08:11:40;;;;;;;39.80;16.02;;;;;;;;;;4366911;32;317759;-86
2023/04/01 08:14:14;;;;;;;30.35;16.90;;;;;;;;;;4399468;32;318639;-85
2023/04/01 08:16:48;;;;;;;30.77;15.10;;;;;;;;;;4385568;32;421139;-83
2023/04/01 08:19:26;;;;;;;38.65;14.30;;;;;;;;;;4378555;32;342053;-84
2023/04/01 08:21:56;;;;;;;24.87;11.05;;;;;;;;;;4397822;32;318618;-85
2023/04/01 08:24:30;;;;;;;22.73;11.57;;;;;;;;;;4386841;32;318997;-84
2023/04/01 08:27:01;;;;;;;23.98;11.48;;;;;;;;;;4398570;32;319290;-87
2023/04/01 08:29:36;;;;;;;21.12;10.05;;;;;;;;;;4389807;32;318736;-83
2023/04/01 08:32:10;;;;;;;19.90;9.15;;;;;;;;;;4396313;32;319605;-84
2023/04/01 08:34:40;;;;;;;17.77;9.73;;;;;;;;;;4370168;32;318741;-83
2023/04/01 08:37:17;;;;;;;24.60;11.88;;;;;;;;;;4377710;32;318383;-82
2023/04/01 08:39:48;;;;;;;24.70;9.05;;;;;;;;;;4367099;32;418124;-84
2023/04/01 08:42:37;;;;;;;22.08;10.63;;;;;;;;;;4378695;32;317549;-84
2023/04/01 08:45:31;;;;;;;19.33;9.65;;;;;;;;;;4399377;32;318806;-85
2023/04/01 08:48:20;;;;;;;17.80;10.30;;;;;;;;;;4382538;32;419715;-84
2023/04/01 08:51:17;;;;;;;22.52;9.00;;;;;;;;;;4384827;32;419481;-81
2023/04/01 08:54:03;;;;;;;25.55;9.95;;;;;;;;;;4380917;32;418260;-86
2023/04/01 08:56:39;;;;;;;29.55;12.00;;;;;;;;;;4386181;32;318668;-84
2023/04/01 08:59:23;;;;;;;28.08;9.68;;;;;;;;;;4379822;32;318715;-85
2023/04/01 09:02:07;;;;;;;23.65;8.10;;;;;;;;;;4348271;32;418575;-85
2023/04/01 09:04:48;;;;;;;17.40;6.50;;;;;;;;;;4385018;32;318023;-84
2023/04/01 09:07:33;;;;;;;15.65;7.68;;;;;;;;;;4386856;32;317873;-84
2023/04/01 09:10:34;;;;;;;17.40;6.40;;;;;;;;;;4398834;32;318221;-92
2023/04/01 09:13:15;;;;;;;18.65;7.10;;;;;;;;;;4384269;32;418327;-80
2023/04/01 09:15:55;;;;;;;13.07;6.62;;;;;;;;;;4385354;32;418474;-92
2023/04/01 09:18:44;;;;;;;25.15;7.90;;;;;;;;;;4387833;32;357136;-92
2023/04/01 09:21:36;;;;;;;29.17;12.45;;;;;;;;;;4396844;32;318061;-92
2023/04/01 09:24:42;;;;;;;25.92;12.10;;;;;;;;;;4377910;32;419465;-89
2023/04/01 09:27:20;;;;;;;26.50;13.23;;;;;;;;;;4352037;32;318669;-88
2023/04/01 09:30:23;;;;;;;21.23;11.98;;;;;;;;;;4386435;32;421839;-84
2023/04/01 09:33:23;;;;;;;22.15;10.02;;;;;;;;;;4374903;32;391310;-86
2023/04/01 09:35:57;;;;;;;22.08;9.35;;;;;;;;;;4355709;32;419372;-88
2023/04/01 09:38:30;;;;;;;20.45;9.35;;;;;;;;;;4358186;32;318153;-86
2023/04/01 09:40:59;;;;;;;19.95;9.65;;;;;;;;;;4389959;32;317771;-88
2023/04/01 09:43:34;;;;;;;19.60;8.93;;;;;;;;;;4392676;32;318002;-86
2023/04/01 09:46:13;;;;;;;21.70;9.10;;;;;;;;;;4400695;32;316128;-81
2023/04/01 09:49:16;;;;;;;18.87;8.45;;;;;;;;;;4381789;32;419989;-80
2023/04/01 09:51:58;;;;;;;15.00;6.72;;;;;;;;;;4359487;32;420305;-89
2023/04/01 09:54:47;;;;;;;15.60;6.57;;;;;;;;;;4377556;32;318287;-87
2023/04/01 09:57:48;;;;;;;20.08;7.00;;;;;;;;;;4389325;32;318827;-86
2023/04/01 10:00:40;;;;;;;25.30;5.80;;;;;;;;;;4379614;32;317608;-87
2023/04/01 10:03:41;;;;;;;27.50;7.32;;;;;;;;;;4396693;32;317474;-87
2023/04/01 10:06:47;;;;;;;23.38;7.18;;;;;;;;;;4379018;32;421041;-87
2023/04/01 10:09:57;;;;;;;24.25;6.40;;;;;;;;;;4385147;32;418332;-80
2023/04/01 10:13:01;;;;;;;17.17;6.45;;;;;;;;;;4379696;32;317621;-83
2023/04/01 10:16:05;;;;;;;24.90;8.75;;;;;;;;;;4348235;32;317734;-83
2023/04/01 10:19:14;;;;;;;19.98;6.80;;;;;;;;;;4363646;32;320359;-83
2023/04/01 10:22:11;;;;;;;29.05;7.68;;;;;;;;;;4385246;32;418746;-82
2023/04/01 10:25:12;;;;;;;20.88;7.82;;;;;;;;;;4386422;32;418477;-83
2023/04/01 10:28:18;;;;;;;15.73;7.82;;;;;;;;;;4386225;32;318513;-82
2023/04/01 10:31:15;;;;;;;17.92;8.30;;;;;;;;;;4387734;32;418641;-84
2023/04/01 10:34:06;;;;;;;13.80;5.47;;;;;;;;;;4362228;32;418472;-85
2023/04/01 10:36:49;;;;;;;13.98;4.97;;;;;;;;;;4373787;32;318460;-85
2023/04/01 10:40:07;;;;;;;11.75;4.68;;;;;;;;;;4388647;32;318467;-84
2023/04/01 10:43:11;;;;;;;14.07;4.30;;;;;;;;;;4387200;32;318173;-81
2023/04/01 10:46:05;;;;;;;9.02;4.32;;;;;;;;;;4386755;32;419745;-82
2023/04/01 10:49:07;;;;;;;16.45;4.07;;;;;;;;;;4390237;32;317351;-80
2023/04/01 10:52:05;;;;;;;15.55;4.25;;;;;;;;;;4372327;32;318322;-83
2023/04/01 10:54:47;;;;;;;15.40;2.83;;;;;;;;;;4318522;32;318339;-83
2023/04/01 10:57:43;;;;;;;11.00;3.30;;;;;;;;;;4386819;32;318468;-83
2023/04/01 11:00:28;;;;;;;6.55;3.33;;;;;;;;;;4400308;32;318327;-82
2023/04/01 11:03:28;;;;;;;9.75;3.55;;;;;;;;;;4385748;32;419014;-83
2023/04/01 11:06:49;;;;;;;21.67;3.10;;;;;;;;;;4387495;32;417526;-83
2023/04/01 11:09:55;;;;;;;8.63;2.80;;;;;;;;;;4376091;32;418151;-84
2023/04/01 11:13:01;;;;;;;11.93;2.75;;;;;;;;;;4305956;32;316946;-83
2023/04/01 11:15:49;;;;;;;11.95;3.55;;;;;;;;;;4389860;32;317874;-78
2023/04/01 11:18:56;;;;;;;10.70;3.75;;;;;;;;;;4390481;32;325714;-79
2023/04/01 11:21:48;;;;;;;12.10;5.03;;;;;;;;;;4394617;32;318387;-80
2023/04/01 11:24:47;;;;;;;16.52;4.75;;;;;;;;;;4369355;32;363414;-82
2023/04/01 11:27:31;;;;;;;10.20;4.10;;;;;;;;;;4360889;32;318506;-78
2023/04/01 11:30:23;;;;;;;11.05;4.75;;;;;;;;;;4383845;32;317972;-74
2023/04/01 11:33:00;;;;;;;12.23;5.00;;;;;;;;;;4371994;32;420205;-73
2023/04/01 11:36:10;;;;;;;11.77;5.45;;;;;;;;;;4370469;32;317438;-73
2023/04/01 11:38:52;;;;;;;12.65;5.68;;;;;;;;;;4366249;32;318414;-74
2023/04/01 11:41:32;;;;;;;14.10;5.68;;;;;;;;;;4359489;32;318330;-75
2023/04/01 11:44:16;;;;;;;13.13;5.90;;;;;;;;;;4385951;32;318301;-87
2023/04/01 11:46:53;;;;;;;15.75;6.72;;;;;;;;;;4381444;32;418791;-78
2023/04/01 11:49:37;;;;;;;10.50;6.03;;;;;;;;;;4375282;32;318581;-77
2023/04/01 11:52:22;;;;;;;10.73;7.28;;;;;;;;;;4383741;32;342857;-75
2023/04/01 11:55:12;;;;;;;15.18;6.85;;;;;;;;;;4359697;32;418079;-76
2023/04/01 11:57:53;;;;;;;15.00;6.65;;;;;;;;;;4359148;32;317878;-75
2023/04/01 12:00:37;;;;;;;9.05;4.90;;;;;;;;;;4386874;32;318271;-77
2023/04/01 12:03:22;;;;;;;11.60;3.97;;;;;;;;;;4389857;32;317678;-74
2023/04/01 12:05:56;;;;;;;7.95;2.75;;;;;;;;;;4357295;32;390007;-76
2023/04/01 12:08:34;;;;;;;8.18;3.45;;;;;;;;;;4374023;32;317212;-79
2023/04/01 12:11:08;;;;;;;11.80;4.37;;;;;;;;;;4398767;32;317346;-87
2023/04/01 12:13:44;;;;;;;7.10;3.30;;;;;;;;;;4388422;32;318196;-74
2023/04/01 12:16:31;;;;;;;11.88;2.90;;;;;;;;;;4391817;32;316586;-80
2023/04/01 12:19:04;;;;;;;8.20;3.20;;;;;;;;;;4385303;32;419168;-80
2023/04/01 12:21:37;;;;;;;9.55;3.67;;;;;;;;;;4391793;32;317319;-75
2023/04/01 12:24:29;;;;;;;13.77;4.03;;;;;;;;;;4400490;32;317865;-75
2023/04/01 12:27:20;;;;;;;6.53;3.42;;;;;;;;;;4372885;32;417800;-83
2023/04/01 12:30:03;;;;;;;5.47;3.00;;;;;;;;;;4363646;32;418248;-76
2023/04/01 12:32:39;;;;;;;14.02;4.60;;;;;;;;;;4375678;32;317475;-88
2023/04/01 12:35:18;;;;;;;13.02;6.22;;;;;;;;;;4387187;32;318434;-82
2023/04/01 12:38:05;;;;;;;11.95;4.40;;;;;;;;;;4363325;32;419879;-78
2023/04/01 12:40:55;;;;;;;12.15;4.40;;;;;;;;;;4380059;32;317847;-78
2023/04/01 12:43:48;;;;;;;13.38;6.05;;;;;;;;;;4379598;32;318405;-79
2023/04/01 12:46:21;;;;;;;15.68;7.25;;;;;;;;;;4387141;32;318225;-80
2023/04/01 12:49:33;;;;;;;10.23;4.45;;;;;;;;;;4382753;32;318318;-80
2023/04/01 12:52:12;;;;;;;9.48;3.97;;;;;;;;;;4377232;32;419726;-78
2023/04/01 12:55:14;;;;;;;8.40;3.45;;;;;;;;;;4345673;32;419184;-78
2023/04/01 12:57:57;;;;;;;16.42;8.48;;;;;;;;;;4341133;32;418529;-78
2023/04/01 13:00:50;;;;;;;16.40;10.15;;;;;;;;;;4354154;32;318298;-77
2023/04/01 13:03:30;;;;;;;13.18;5.90;;;;;;;;;;4371904;32;319424;-78
2023/04/01 13:06:16;;;;;;;10.40;6.25;;;;;;;;;;4373430;32;318017;-81
2023/04/01 13:08:50;;;;;;;18.48;7.95;;;;;;;;;;4358575;32;419110;-80
2023/04/01 13:11:25;;;;;;;13.85;6.45;;;;;;;;;;4371672;32;318260;-77
2023/04/01 13:14:32;;;;;;;10.13;4.75;;;;;;;;;;4370535;32;318714;-77
2023/04/01 13:17:07;;;;;;;9.45;4.15;;;;;;;;;;4310701;32;419596;-78
2023/04/01 13:19:40;;;;;;;19.40;4.53;;;;;;;;;;4313218;32;316661;-83
2023/04/01 13:22:14;;;;;;;18.00;9.40;;;;;;;;;;4351311;32;349011;-79
2023/04/01 13:24:50;;;;;;;17.83;8.32;;;;;;;;;;4351666;32;418611;-76
2023/04/01 13:27:23;;;;;;;12.15;7.32;;;;;;;;;;4367008;32;318298;-82
2023/04/01 13:30:03;;;;;;;11.23;5.43;;;;;;;;;;4367343;32;318631;-77
2023/04/01 13:32:38;;;;;;;14.45;6.60;;;;;;;;;;4362395;32;318456;-76
2023/04/01 13:35:21;;;;;;;15.57;6.32;;;;;;;;;;4352611;32;318194;-77
2023/04/01 13:38:01;;;;;;;15.43;7.75;;;;;;;;;;4358448;32;420156;-79
2023/04/01 13:40:47;;;;;;;13.55;7.47;;;;;;;;;;4363887;32;317586;-83
2023/04/01 13:43:23;;;;;;;10.55;5.72;;;;;;;;;;4368395;32;317550;-79
2023/04/01 13:46:25;;;;;;;12.63;4.65;;;;;;;;;;4384379;32;318179;-78
2023/04/01 13:49:28;;;;;;;11.35;5.00;;;;;;;;;;4372538;32;420033;-77
2023/04/01 13:52:09;;;;;;;11.73;4.72;;;;;;;;;;4357204;32;420273;-77
2023/04/01 13:54:56;;;;;;;11.75;4.03;;;;;;;;;;4373607;32;318381;-79
2023/04/01 13:57:49;;;;;;;7.07;3.30;;;;;;;;;;4350082;32;317811;-76
2023/04/01 14:00:28;;;;;;;10.60;3.75;;;;;;;;;;4356431;32;317236;-84
2023/04/01 14:03:18;;;;;;;5.28;2.58;;;;;;;;;;4370156;32;318398;-76
2023/04/01 14:06:11;;;;;;;5.50;2.78;;;;;;;;;;4367829;32;417746;-75
2023/04/01 14:09:00;;;;;;;7.57;3.20;;;;;;;;;;4366201;32;317166;-78
2023/04/01 14:11:37;;;;;;;9.93;4.68;;;;;;;;;;4352510;32;316991;-80
2023/04/01 14:14:15;;;;;;;9.55;5.03;;;;;;;;;;4374053;32;317071;-77
2023/04/01 14:17:07;;;;;;;8.98;5.47;;;;;;;;;;4339956;32;417827;-81
2023/04/01 14:19:59;;;;;;;8.07;4.60;;;;;;;;;;4361477;32;316642;-79
2023/04/01 14:22:35;;;;;;;9.23;4.12;;;;;;;;;;4348096;32;316560;-78
2023/04/01 14:25:28;;;;;;;7.45;3.85;;;;;;;;;;4370579;32;316487;-87
2023/04/01 14:28:05;;;;;;;4.75;3.28;;;;;;;;;;4350448;32;419343;-84
2023/04/01 14:30:57;;;;;;;8.20;3.70;;;;;;;;;;4365825;32;317007;-79
2023/04/01 14:33:39;;;;;;;5.43;3.37;;;;;;;;;;4359292;32;316999;-82
2023/04/01 14:36:27;;;;;;;6.30;2.92;;;;;;;;;;4378773;32;329990;-79
2023/04/01 14:39:12;;;;;;;8.30;3.55;;;;;;;;;;4364352;32;417684;-83
2023/04/01 14:41:50;;;;;;;11.35;5.37;;;;;;;;;;4370766;32;348271;-82
2023/04/01 14:44:35;;;;;;;4.40;2.87;;;;;;;;;;4371605;32;318373;-80
2023/04/01 14:47:34;;;;;;;5.22;3.30;;;;;;;;;;4355680;32;316703;-83
2023/04/01 14:50:13;;;;;;;9.90;4.45;;;;;;;;;;4367496;32;419229;-81
2023/04/01 14:52:46;;;;;;;16.12;10.27;;;;;;;;;;4357041;32;417524;-80
2023/04/01 14:55:27;;;;;;;13.75;6.32;;;;;;;;;;4364994;32;318442;-79
2023/04/01 14:58:13;;;;;;;4.07;2.17;;;;;;;;;;4361162;32;418710;-80
2023/04/01 15:00:51;;;;;;;4.12;2.53;;;;;;;;;;4350725;32;418048;-79
2023/04/01 15:03:26;;;;;;;6.55;4.18;;;;;;;;;;4370881;32;317093;-76
2023/04/01 15:06:02;;;;;;;4.60;2.28;;;;;;;;;;4374720;32;316641;-81
2023/04/01 15:08:36;;;;;;;9.45;4.65;;;;;;;;;;4367088;32;317551;-76
2023/04/01 15:11:26;;;;;;;5.05;2.55;;;;;;;;;;4368381;32;316473;-78
2023/04/01 15:14:26;;;;;;;10.68;2.22;;;;;;;;;;4347965;32;418686;-77